Latest Weather Observations for Sydney - Observatory Hill

IDN60901

Issued at 2:21 pm EDT Monday 8 March 2021 (issued every 10 minutes, with the page automatically refreshed every 10 minutes)

About weather observations | Map of Sydney area stations | Latest observations for Sydney area | Other Formats
Station Details ID: 066214 Name: SYDNEY (OBSERVATORY HILL) Lat: -33.86 Lon: 151.20 Height: 43.37 m
Data from the previous 72 hours. | See also: Recent months at Sydney - Observatory Hill

* Apparent temperature (App Temp) for Sydney - Observatory Hill is calculated using temperature observations collected at Sydney - Observatory Hill and wind observations collected at Fort Denison, as wind observations are not currently provided for Sydney - Observatory Hill.

Date/Time
EDT
Temp
°C
App
Temp
°C
Dew
Point
°C
Rel
Hum
%
Delta-T
°C
Wind Press
QNH
hPa
Press
MSL
hPa
Rain since
9am
mm
Dir  Spd
km/h
Gust
km/h
Spd
kts
Gust
kts
08/02:00pm 30.0 29.8 18.4 49 7.5 NW 17 - 9 - 1008.9 1008.8 0.0
08/01:30pm 29.9 29.4 19.0 52 7.1 WNW 20 - 11 - 1009.3 1009.1 0.0
08/01:00pm 29.9 29.5 19.0 52 7.1 WNW 19 - 10 - 1009.6 1009.4 0.0
08/12:30pm 29.8 30.5 20.4 57 6.2 NW 17 - 9 - 1010.2 1010.0 0.0
08/12:00pm 29.2 30.1 20.1 58 6.0 NNW 15 - 8 - 1010.6 1010.4 0.0
08/11:30am 27.8 27.9 19.1 59 5.6 N 17 - 9 - 1011.0 1010.8 0.0
08/11:00am 26.9 28.1 20.0 66 4.5 N 13 - 7 - 1011.4 1011.2 0.0
08/10:30am 24.7 27.2 19.8 74 3.2 NNW 6 - 3 - 1012.0 1011.8 0.0
08/10:00am 23.1 25.2 19.3 79 2.4 W 7 - 4 - 1012.3 1012.1 0.0
08/09:30am 21.5 22.6 18.9 85 1.6 WNW 11 - 6 - 1012.3 1012.1 0.0
08/09:00am 20.9 22.3 18.7 87 1.4 WNW 9 - 5 - 1012.2 1012.0 0.0
08/08:30am 20.2 21.3 18.1 88 1.3 W 9 - 5 - 1012.2 1012.0 0.0
08/08:00am 20.0 20.4 18.1 89 1.2 NNW 13 - 7 - 1012.2 1012.0 0.0
08/07:30am 20.0 22.1 18.1 89 1.2 N 4 - 2 - 1012.1 1011.9 0.0
08/07:00am 19.7 21.7 17.8 89 1.2 N 4 - 2 - 1011.9 1011.7 0.0
08/06:30am 19.8 21.4 17.9 89 1.2 NNW 6 - 3 - 1011.8 1011.6 0.0
08/06:00am 19.8 22.2 17.9 89 1.2 N 2 - 1 - 1011.5 1011.3 0.0
08/05:30am 19.8 22.1 17.8 88 1.2 NNE 2 - 1 - 1011.3 1011.1 0.0
08/05:00am 19.7 21.7 17.8 89 1.2 NW 4 - 2 - 1011.4 1011.2 0.0
08/04:30am 19.8 21.8 17.8 88 1.2 N 4 - 2 - 1011.3 1011.1 0.0
08/04:00am 19.7 22.0 17.8 89 1.2 N 2 - 1 - 1011.3 1011.1 0.0
08/03:30am 19.6 21.9 17.7 89 1.2 N 2 - 1 - 1011.5 1011.3 0.0
08/03:00am 19.8 21.8 17.8 88 1.2 NW 4 - 2 - 1012.1 1011.9 0.0
08/02:30am 19.8 21.7 17.6 87 1.4 NW 4 - 2 - 1012.3 1012.1 0.0
08/02:00am 20.2 22.2 17.8 86 1.5 N 4 - 2 - 1012.5 1012.3 0.0
08/01:30am 20.6 22.1 18.0 85 1.6 N 7 - 4 - 1012.8 1012.6 0.0
08/01:00am 20.9 22.0 18.1 84 1.7 NNE 9 - 5 - 1013.0 1012.8 0.0
08/12:30am 21.2 21.6 18.2 83 1.9 N 13 - 7 - 1013.2 1013.0 0.0
08/12:00am 21.4 21.4 18.2 82 2.0 NNE 15 - 8 - 1013.4 1013.2 0.0
 
Date/Time
EDT
Temp
°C
App
Temp
°C
Dew
Point
°C
Rel
Hum
%
Delta-T
°C
Wind Press
QNH
hPa
Press
MSL
hPa
Rain since
9am
mm
Dir  Spd
km/h
Gust
km/h
Spd
kts
Gust
kts
07/11:30pm 21.6 20.8 18.4 82 2.0 NNE 20 - 11 - 1013.4 1013.2 0.0
07/11:00pm 21.7 21.1 18.5 82 2.0 NE 19 - 10 - 1013.4 1013.2 0.0
07/10:30pm 21.7 20.8 18.1 80 2.2 NE 20 - 11 - 1013.6 1013.4 0.0
07/10:00pm 21.8 21.0 18.0 79 2.4 NE 19 - 10 - 1013.5 1013.3 0.0
07/09:30pm 21.8 20.9 17.8 78 2.5 NE 19 - 10 - 1013.4 1013.2 0.0
07/09:00pm 21.7 20.5 17.5 77 2.6 NE 20 - 11 - 1013.1 1012.9 0.0
07/08:30pm 21.7 20.6 17.3 76 2.7 NE 19 - 10 - 1012.7 1012.5 0.0
07/08:00pm 21.8 20.6 17.0 74 2.9 NE 19 - 10 - 1012.4 1012.2 0.0
07/07:30pm 21.9 20.3 16.6 72 3.2 NE 20 - 11 - 1012.1 1011.9 0.0
07/07:00pm 22.2 20.7 16.2 69 3.6 NE 19 - 10 - 1011.8 1011.6 0.0
07/06:30pm 22.7 20.6 16.3 67 3.9 NE 22 - 12 - 1011.8 1011.6 0.0
07/06:00pm 23.0 21.3 15.8 64 4.3 NE 19 - 10 - 1011.8 1011.6 0.0
07/05:30pm 23.7 21.6 15.2 59 5.1 NE 20 - 11 - 1011.7 1011.5 0.0
07/05:00pm 25.4 23.9 16.3 57 5.6 NE 19 - 10 - 1011.7 1011.5 0.0
07/04:30pm 26.5 25.1 17.0 56 5.9 ENE 20 - 11 - 1011.8 1011.6 0.0
07/04:00pm 27.0 24.9 17.2 55 6.1 ENE 24 - 13 - 1012.0 1011.8 0.0
07/03:30pm 26.8 25.0 17.8 57 5.7 E 24 - 13 - 1012.3 1012.1 0.0
07/03:00pm 26.6 24.8 17.9 59 5.5 E 24 - 13 - 1012.7 1012.5 0.0
07/02:30pm 26.8 24.9 17.6 57 5.8 E 24 - 13 - 1013.0 1012.8 0.0
07/02:00pm 26.5 25.4 17.8 58 5.5 E 20 - 11 - 1013.5 1013.3 0.0
07/01:30pm 25.7 24.6 17.4 60 5.2 E 19 - 10 - 1013.9 1013.7 0.0
07/01:00pm 24.2 22.3 15.7 59 5.1 E 20 - 11 - 1014.3 1014.1 0.0
07/12:30pm 25.5 25.6 18.4 65 4.5 E 15 - 8 - 1014.7 1014.5 0.0
07/12:00pm 23.9 23.1 16.2 62 4.7 E 15 - 8 - 1015.2 1015.0 0.0
07/11:30am 22.8 23.3 15.6 64 4.3 ESE 7 - 4 - 1015.5 1015.3 0.0
07/11:00am 23.2 24.3 14.7 58 5.0 SSW 2 - 1 - 1015.8 1015.6 0.0
07/10:30am 22.5 22.8 14.9 62 4.5 W 7 - 4 - 1016.1 1015.9 0.0
07/10:00am 21.3 21.1 15.8 71 3.3 WNW 11 - 6 - 1016.0 1015.8 0.0
07/09:30am 19.8 18.5 14.8 73 2.9 WNW 15 - 8 - 1015.9 1015.7 0.0
07/09:00am 18.0 16.3 13.5 75 2.5 W 15 - 8 - 1015.9 1015.7 0.0
07/08:30am 17.3 16.0 13.6 79 2.1 W 13 - 7 - 1015.6 1015.4 0.0
07/08:00am 16.4 15.4 13.3 82 1.7 WNW 11 - 6 - 1015.4 1015.2 0.0
07/07:30am 16.2 13.9 12.9 81 1.8 W 17 - 9 - 1015.3 1015.1 0.0
07/07:00am 16.3 14.8 13.0 81 1.8 W 13 - 7 - 1014.9 1014.7 0.0
07/06:30am 16.5 14.5 12.8 79 2.1 W 15 - 8 - 1014.6 1014.4 0.0
07/06:00am 17.0 15.1 13.1 78 2.2 W 15 - 8 - 1014.5 1014.3 0.0
07/05:30am 17.3 15.4 13.0 76 2.4 W 15 - 8 - 1014.5 1014.3 0.0
07/05:00am 17.3 15.0 13.0 76 2.4 W 17 - 9 - 1014.4 1014.2 0.0
07/04:30am 17.4 15.5 12.9 75 2.5 WNW 15 - 8 - 1014.4 1014.2 0.0
07/04:00am 18.2 18.1 13.3 73 2.8 SW 6 - 3 - 1014.5 1014.3 0.0
07/03:30am 18.9 18.0 13.7 72 3.0 SSE 11 - 6 - 1014.5 1014.3 0.0
07/03:00am 19.0 18.1 13.8 72 3.0 SSE 11 - 6 - 1014.6 1014.4 0.0
07/02:30am 19.0 18.4 13.4 70 3.2 SSE 9 - 5 - 1014.7 1014.5 0.0
07/02:00am 19.4 18.5 13.8 70 3.2 S 11 - 6 - 1015.1 1014.9 0.0
07/01:30am 19.9 19.5 13.1 65 3.9 S 7 - 4 - 1015.0 1014.8 0.0
07/01:00am 20.0 19.3 13.2 65 3.9 SSE 9 - 5 - 1015.1 1014.9 0.0
07/12:30am 20.1 19.0 13.1 64 4.0 SSE 11 - 6 - 1015.2 1015.0 0.0
07/12:00am 20.1 19.6 12.8 63 4.1 S 7 - 4 - 1015.2 1015.0 0.0
 
Date/Time
EDT
Temp
°C
App
Temp
°C
Dew
Point
°C
Rel
Hum
%
Delta-T
°C
Wind Press
QNH
hPa
Press
MSL
hPa
Rain since
9am
mm
Dir  Spd
km/h
Gust
km/h
Spd
kts
Gust
kts
06/11:30pm 20.1 18.8 12.6 62 4.2 SSE 11 - 6 - 1015.1 1014.9 0.0
06/11:00pm 20.1 18.8 12.6 62 4.2 SSE 11 - 6 - 1015.2 1015.0 0.0
06/10:30pm 20.2 19.8 12.9 63 4.1 S 7 - 4 - 1015.3 1015.1 0.0
06/10:00pm 19.8 18.7 13.0 65 3.9 SSE 11 - 6 - 1015.3 1015.1 0.0
06/09:30pm 19.6 18.0 12.8 65 3.8 SSE 13 - 7 - 1015.0 1014.8 0.0
06/09:00pm 19.7 17.8 12.9 65 3.8 SE 15 - 8 - 1014.7 1014.5 0.0
06/08:30pm 19.7 18.1 12.9 65 3.8 SSE 13 - 7 - 1014.4 1014.2 0.0
06/08:00pm 20.1 18.3 13.3 65 3.9 SSE 15 - 8 - 1013.9 1013.7 0.0
06/07:30pm 20.2 18.4 13.2 64 4.0 SE 15 - 8 - 1013.6 1013.4 0.0
06/07:00pm 20.6 18.4 13.3 63 4.2 SE 17 - 9 - 1013.3 1013.1 0.0
06/06:30pm 21.0 18.3 13.4 62 4.4 SE 20 - 11 - 1013.1 1012.9 0.0
06/06:00pm 21.5 18.2 12.9 58 4.9 SSE 22 - 12 - 1012.9 1012.7 0.0
06/05:30pm 21.8 18.7 12.1 54 5.5 SE 20 - 11 - 1012.6 1012.4 0.0
06/05:00pm 23.2 20.3 12.2 50 6.3 SE 19 - 10 - 1012.4 1012.2 0.0
06/04:30pm 23.7 20.1 11.7 47 6.8 SE 22 - 12 - 1012.5 1012.3 0.0
06/04:00pm 23.2 20.2 12.5 51 6.1 SE 20 - 11 - 1012.5 1012.3 0.0
06/03:30pm 23.4 20.9 12.4 50 6.3 SSE 17 - 9 - 1012.4 1012.2 0.0
06/03:00pm 22.9 20.1 11.3 48 6.5 S 17 - 9 - 1012.4 1012.2 0.0
06/02:30pm 23.5 20.7 11.5 47 6.8 SSE 17 - 9 - 1012.6 1012.4 0.0
06/02:00pm 23.3 20.5 11.4 47 6.7 S 17 - 9 - 1012.9 1012.7 0.0
06/01:30pm 22.9 19.3 11.9 50 6.2 SSE 22 - 12 - 1013.1 1012.9 0.0
06/01:00pm 22.7 20.2 12.3 52 5.9 S 17 - 9 - 1013.2 1013.0 0.0
06/12:30pm 22.6 20.1 12.3 52 5.8 S 17 - 9 - 1013.3 1013.1 0.0
06/12:00pm 22.9 19.3 11.9 50 6.2 S 22 - 12 - 1013.4 1013.2 0.0
06/11:30am 22.7 19.7 12.0 50 6.0 S 19 - 10 - 1013.6 1013.4 0.0
06/11:00am 22.1 19.2 12.9 56 5.3 SSW 20 - 11 - 1013.4 1013.2 0.0
06/10:30am 21.7 19.0 12.8 57 5.1 SSW 19 - 10 - 1013.4 1013.2 0.0
06/10:00am 20.5 17.3 12.0 58 4.8 SSW 20 - 11 - 1013.4 1013.2 0.0
06/09:30am 20.3 17.0 12.8 62 4.2 SSW 22 - 12 - 1013.3 1013.1 0.0
06/09:00am 19.9 17.3 10.6 55 5.1 S 15 - 8 - 1013.0 1012.8 0.0
06/08:30am 19.5 17.1 11.3 59 4.5 S 15 - 8 - 1012.8 1012.6 0.0
06/08:00am 19.0 16.7 11.6 62 4.1 SSW 15 - 8 - 1012.4 1012.2 0.0
06/07:30am 18.7 16.2 12.2 66 3.6 SSW 17 - 9 - 1012.0 1011.8 0.0
06/07:00am 18.5 15.6 12.3 67 3.5 SSW 19 - 10 - 1011.5 1011.3 0.0
06/06:30am 18.2 16.2 12.6 70 3.1 SSW 15 - 8 - 1011.2 1011.0 0.0
06/06:00am 18.0 15.9 13.5 75 2.6 SW 17 - 9 - 1011.1 1010.9 0.0
06/05:30am 18.0 15.4 13.7 76 2.4 SW 20 - 11 - 1010.9 1010.7 0.0
06/05:00am 18.1 16.0 13.6 75 2.6 SSW 17 - 9 - 1010.9 1010.7 0.0
06/04:30am 18.3 17.0 13.6 74 2.7 SSW 13 - 7 - 1010.9 1010.7 0.0
06/04:00am 18.5 16.0 13.4 72 2.9 SSW 19 - 10 - 1010.8 1010.6 0.0
06/03:30am 18.8 16.0 13.2 70 3.2 S 20 - 11 - 1010.8 1010.6 0.0
06/03:00am 19.3 16.7 13.3 68 3.4 SSW 19 - 10 - 1010.8 1010.6 0.0
06/02:30am 19.4 17.4 12.7 65 3.8 S 15 - 8 - 1011.0 1010.8 0.0
06/02:00am 19.5 17.1 12.8 65 3.8 SSW 17 - 9 - 1011.2 1011.0 0.0
06/01:30am 19.5 17.6 13.0 66 3.7 SSW 15 - 8 - 1011.3 1011.1 0.0
06/01:00am 19.4 17.6 13.3 68 3.5 S 15 - 8 - 1011.4 1011.2 0.0
06/12:30am 19.1 17.9 13.9 72 3.0 S 13 - 7 - 1011.6 1011.4 0.0
06/12:00am 19.3 17.3 13.9 71 3.1 SSE 17 - 9 - 1011.7 1011.5 0.0
 
Date/Time
EDT
Temp
°C
App
Temp
°C
Dew
Point
°C
Rel
Hum
%
Delta-T
°C
Wind Press
QNH
hPa
Press
MSL
hPa
Rain since
9am
mm
Dir  Spd
km/h
Gust
km/h
Spd
kts
Gust
kts
05/11:30pm 19.6 17.2 13.8 69 3.3 S 19 - 10 - 1011.6 1011.4 0.0
05/11:00pm 19.6 17.0 13.3 67 3.6 S 19 - 10 - 1011.5 1011.3 0.0
05/10:30pm 20.2 18.0 13.2 64 4.0 S 17 - 9 - 1011.3 1011.1 0.0
05/10:00pm 20.2 18.4 13.2 64 4.0 S 15 - 8 - 1011.2 1011.0 0.0
05/09:30pm 20.4 18.8 12.9 62 4.3 SSE 13 - 7 - 1011.1 1010.9 0.0
05/09:00pm 20.4 17.7 12.9 62 4.3 SSE 19 - 10 - 1010.8 1010.6 0.0
05/08:30pm 20.4 17.8 13.1 63 4.2 S 19 - 10 - 1010.5 1010.3 0.0
05/08:00pm 20.5 18.2 13.0 62 4.3 S 17 - 9 - 1010.0 1009.8 0.0
05/07:30pm 20.5 17.2 12.7 61 4.4 SSE 22 - 12 - 1009.5 1009.3 0.0
05/07:00pm 20.8 17.6 13.0 61 4.5 SSE 22 - 12 - 1009.3 1009.1 0.0
05/06:30pm 21.0 18.3 12.9 60 4.6 SE 19 - 10 - 1009.1 1008.9 0.0
05/06:00pm 21.1 17.3 12.3 57 5.0 SSE 24 - 13 - 1008.8 1008.7 0.0
05/05:30pm 21.7 17.8 13.3 59 4.8 SSE 26 - 14 - 1008.6 1008.5 0.0
05/05:00pm 22.0 18.4 13.1 57 5.1 SSE 24 - 13 - 1008.5 1008.4 0.0
05/04:30pm 23.7 19.9 13.6 53 5.9 S 26 - 14 - 1008.4 1008.3 0.0
05/04:00pm 21.9 18.4 12.2 54 5.5 S 22 - 12 - 1008.7 1008.6 0.0
05/03:30pm 22.8 19.4 12.4 52 5.9 S 22 - 12 - 1008.7 1008.6 0.0
05/03:00pm 24.2 20.4 13.7 52 6.2 S 26 - 14 - 1008.9 1008.8 0.0
05/02:30pm 24.8 21.8 14.9 54 5.9 SSE 24 - 13 - 1008.9 1008.8 0.0

Latest Capital City Observations: Canberra | Sydney | Melbourne | Brisbane | Adelaide | Perth | Hobart | Darwin

Other formats

Comma delimited format used in spreadsheet applications
http://www.bom.gov.au/fwo/IDN60901/IDN60901.94768.axf

JavaScript Object Notation format (JSON) in row-major order
http://www.bom.gov.au/fwo/IDN60901/IDN60901.94768.json

Data quality

Most of these data are generated automatically and are frequently updated. Quality checks on data are not normally performed. It is possible for incorrect values to appear. Refer to information at About Latest Weather Observations and please check the disclaimer before using these data.